Time;durP1;ratioP1;P1;durP2;ratioP2;P2;SDS_P1;SDS_P2;PMS_P1;PMS_P2;Temp;Humidity;BMP_temperature;BMP_pressure;BME280_temperature;BME280_humidity;BME280_pressure;Samples;Min_cycle;Max_cycle;Signal;HPM_P1;HPM_P2
2022/11/05 00:10:05;;;;;;;60.38;57.92;;;;;;;5.69;100.00;101321.53;5075872;28;20054;-76
2022/11/05 00:17:59;;;;;;;61.40;59.22;;;;;;;5.59;100.00;101322.28;5062475;28;20076;-77
2022/11/05 00:20:24;;;;;;;78.65;75.78;;;;;;;5.54;100.00;101323.41;5058500;28;20272;-76
2022/11/05 00:25:42;;;;;;;62.35;60.13;;;;;;;5.47;100.00;101324.78;5077113;28;20116;-76
2022/11/05 00:28:08;;;;;;;67.18;64.72;;;;;;;5.46;100.00;101324.88;5075683;28;20119;-76
2022/11/05 00:30:33;;;;;;;78.10;75.32;;;;;;;5.43;100.00;101325.94;5076421;28;20456;-76
2022/11/05 00:33:01;;;;;;;69.18;66.60;;;;;;;5.41;100.00;101327.81;5077728;28;20485;-76
2022/11/05 00:35:27;;;;;;;65.75;63.40;;;;;;;5.42;100.00;101328.66;5058007;28;20027;-77
2022/11/05 00:37:52;;;;;;;67.15;64.65;;;;;;;5.38;100.00;101319.34;5057593;28;20032;-76
2022/11/05 00:40:18;;;;;;;65.57;63.13;;;;;;;5.38;100.00;101338.53;5076145;28;20078;-76
2022/11/05 00:45:29;;;;;;;62.28;59.97;;;;;;;5.35;100.00;101325.63;5075878;28;20046;-76
2022/11/05 00:50:39;;;;;;;65.88;63.40;;;;;;;5.24;100.00;101317.66;5073483;28;20046;-76
2022/11/05 00:53:05;;;;;;;69.72;67.10;;;;;;;5.32;100.00;101334.53;5040113;28;20024;-76
2022/11/05 00:55:36;;;;;;;67.28;64.85;;;;;;;5.18;100.00;101311.06;5071395;28;20467;-77
2022/11/05 00:58:07;;;;;;;60.42;58.15;;;;;;;5.27;100.00;101330.53;5056886;28;20032;-77
2022/11/05 01:00:34;;;;;;;64.28;61.42;;;;;;;5.22;100.00;101332.63;5059006;28;20055;-77
2022/11/05 01:03:03;;;;;;;66.30;62.97;;;;;;;5.23;100.00;101329.91;5075101;28;20036;-76
2022/11/05 01:05:29;;;;;;;62.75;60.42;;;;;;;5.20;100.00;101329.28;5055988;28;20024;-78
2022/11/05 01:07:55;;;;;;;63.80;61.38;;;;;;;5.11;100.00;101322.88;5077101;28;20032;-77
2022/11/05 01:10:21;;;;;;;63.60;61.33;;;;;;;5.12;100.00;101332.44;5076287;28;20026;-77
2022/11/05 01:12:47;;;;;;;70.35;67.65;;;;;;;5.13;100.00;101334.09;5074505;28;20082;-77
2022/11/05 01:15:14;;;;;;;60.17;57.72;;;;;;;5.13;100.00;101331.47;5057188;28;20039;-76
2022/11/05 01:17:39;;;;;;;69.68;67.00;;;;;;;5.14;100.00;101341.00;5057802;28;20037;-76
2022/11/05 01:20:04;;;;;;;62.35;59.25;;;;;;;5.15;100.00;101342.66;5075930;28;20106;-76
2022/11/05 01:22:30;;;;;;;61.13;58.90;;;;;;;5.12;100.00;101337.66;5075162;28;20028;-77
2022/11/05 01:24:55;;;;;;;59.28;57.13;;;;;;;5.01;100.00;101319.19;5059485;28;20036;-77
2022/11/05 01:27:21;;;;;;;68.38;65.90;;;;;;;5.13;100.00;101336.69;5058231;28;20021;-77
2022/11/05 01:29:46;;;;;;;65.88;63.42;;;;;;;5.11;100.00;101341.19;5076124;28;20036;-76
2022/11/05 01:32:11;;;;;;;72.22;69.65;;;;;;;5.08;100.00;101349.25;5075064;28;20131;-76
2022/11/05 01:34:37;;;;;;;65.15;62.83;;;;;;;5.08;100.00;101350.09;5057551;28;20119;-76
2022/11/05 01:37:02;;;;;;;59.70;57.45;;;;;;;4.99;100.00;101328.94;5075478;28;20484;-76
2022/11/05 01:39:27;;;;;;;66.47;63.83;;;;;;;5.13;100.00;101355.03;5056887;28;20129;-76
2022/11/05 01:41:53;;;;;;;65.85;63.53;;;;;;;5.14;100.00;101343.63;5057319;28;20035;-76
2022/11/05 01:44:56;;;;;;;63.35;61.03;;;;;;;5.16;100.00;101339.09;5058633;28;20029;-76
2022/11/05 01:47:56;;;;;;;53.35;51.22;;;;;;;5.15;100.00;101345.28;5071248;28;20036;-78
2022/11/05 01:50:31;;;;;;;47.65;45.50;;;;;;;5.15;100.00;101342.66;5060757;28;20032;-76
2022/11/05 01:53:14;;;;;;;49.88;47.90;;;;;;;5.10;100.00;101344.78;5079472;28;20028;-77
2022/11/05 01:56:12;;;;;;;45.10;43.45;;;;;;;5.10;100.00;101342.16;5061764;28;20024;-77
2022/11/05 01:58:45;;;;;;;46.20;44.53;;;;;;;5.08;100.00;101344.88;4984936;28;20037;-78
2022/11/05 02:01:11;;;;;;;50.60;48.70;;;;;;;5.09;100.00;101348.31;5004890;28;20042;-75
2022/11/05 02:03:37;;;;;;;58.60;56.53;;;;;;;5.01;100.00;101333.13;5008110;28;20030;-73
2022/11/05 02:06:08;;;;;;;61.08;58.88;;;;;;;5.10;100.00;101345.59;5008903;28;20125;-73
2022/11/05 02:08:44;;;;;;;53.05;51.00;;;;;;;5.08;100.00;101344.03;4990330;28;20037;-73
2022/11/05 02:11:13;;;;;;;62.33;59.63;;;;;;;5.05;100.00;101339.84;5007584;28;20121;-73
2022/11/05 02:13:39;;;;;;;54.75;52.83;;;;;;;4.98;100.00;101324.66;5007595;28;20667;-74
2022/11/05 02:16:22;;;;;;;57.33;55.22;;;;;;;5.07;100.00;101344.97;4973472;28;20030;-73
2022/11/05 02:18:55;;;;;;;60.97;58.67;;;;;;;5.06;100.00;101341.50;4990172;28;20064;-73
2022/11/05 02:21:39;;;;;;;57.15;55.08;;;;;;;5.10;100.00;101342.16;5006310;28;20193;-73
2022/11/05 02:24:36;;;;;;;49.78;48.00;;;;;;;5.10;100.00;101344.78;5006862;28;20030;-73
2022/11/05 02:27:29;;;;;;;49.10;47.30;;;;;;;5.09;100.00;101356.16;5005907;28;20041;-73
2022/11/05 02:30:02;;;;;;;46.47;44.85;;;;;;;5.07;100.00;101350.19;4992600;28;20073;-73
2022/11/05 02:32:42;;;;;;;45.75;44.08;;;;;;;5.08;100.00;101346.66;5007227;28;20026;-73
2022/11/05 02:35:25;;;;;;;49.70;47.88;;;;;;;5.09;100.00;101346.53;5057124;28;20029;-73
2022/11/05 02:37:57;;;;;;;48.20;46.45;;;;;;;5.11;100.00;101352.50;5083214;28;20052;-74
2022/11/05 02:40:36;;;;;;;53.72;51.80;;;;;;;5.13;100.00;101350.63;5086448;28;20400;-74
2022/11/05 02:43:14;;;;;;;48.95;47.20;;;;;;;5.17;100.00;101347.81;5083467;28;20538;-74
2022/11/05 02:46:11;;;;;;;49.42;47.28;;;;;;;5.14;100.00;101348.84;5066284;28;20031;-74
2022/11/05 02:48:54;;;;;;;53.83;51.90;;;;;;;5.18;100.00;101352.91;5085173;28;20020;-74
2022/11/05 02:51:31;;;;;;;51.35;49.50;;;;;;;5.19;100.00;101354.63;5082848;28;20039;-73
2022/11/05 02:53:59;;;;;;;55.65;53.42;;;;;;;5.19;100.00;101349.38;5082850;28;20020;-73
2022/11/05 02:56:39;;;;;;;51.03;49.08;;;;;;;5.08;100.00;101337.00;5082219;28;20499;-73
2022/11/05 02:59:05;;;;;;;55.08;52.70;;;;;;;5.17;100.00;101343.41;5085524;28;20082;-74
2022/11/05 03:01:30;;;;;;;57.25;55.17;;;;;;;5.23;100.00;101350.84;5083776;28;20020;-74
2022/11/05 03:03:59;;;;;;;56.00;53.53;;;;;;;5.25;100.00;101353.38;5084766;28;20043;-74
2022/11/05 03:06:50;;;;;;;55.50;53.53;;;;;;;5.25;100.00;101359.44;5083656;28;20062;-74
2022/11/05 03:09:39;;;;;;;48.85;47.13;;;;;;;5.23;100.00;101350.84;5066497;28;20027;-74
2022/11/05 03:12:20;;;;;;;43.47;41.85;;;;;;;5.20;100.00;101351.03;5083558;28;20042;-74
2022/11/05 03:15:00;;;;;;;45.53;43.78;;;;;;;5.17;100.00;101346.03;5068648;28;20149;-74
2022/11/05 03:18:02;;;;;;;48.50;46.72;;;;;;;5.02;100.00;101315.66;5066472;28;20035;-74
2022/11/05 03:20:36;;;;;;;39.80;38.33;;;;;;;5.17;100.00;101337.34;5059815;28;20416;-74
2022/11/05 03:23:24;;;;;;;51.67;49.85;;;;;;;5.17;100.00;101339.97;5074507;28;20064;-73
2022/11/05 03:25:54;;;;;;;46.60;44.90;;;;;;;5.17;100.00;101340.78;5083014;28;20024;-74
2022/11/05 03:28:24;;;;;;;51.37;49.47;;;;;;;5.03;100.00;101317.31;5081990;28;20066;-74
2022/11/05 03:30:53;;;;;;;48.63;46.85;;;;;;;5.18;100.00;101342.47;5083925;28;20030;-74
2022/11/05 03:33:27;;;;;;;51.92;49.70;;;;;;;5.13;100.00;101328.84;5078904;28;20031;-75
2022/11/05 03:36:02;;;;;;;41.70;40.15;;;;;;;5.21;100.00;101342.28;5083854;28;20114;-74
2022/11/05 03:38:31;;;;;;;46.05;43.88;;;;;;;5.20;100.00;101342.38;5082420;28;20564;-74
2022/11/05 03:41:02;;;;;;;48.72;46.72;;;;;;;5.18;100.00;101339.84;5083078;28;20448;-74
2022/11/05 03:43:31;;;;;;;41.83;40.33;;;;;;;5.09;100.00;101333.44;5075261;28;20031;-74
2022/11/05 03:46:16;;;;;;;41.22;39.78;;;;;;;5.11;100.00;101343.81;5084378;28;20056;-74
2022/11/05 03:48:47;;;;;;;43.50;41.88;;;;;;;5.11;100.00;101342.03;5065554;28;20020;-74
2022/11/05 03:51:28;;;;;;;47.70;46.00;;;;;;;5.16;100.00;101349.56;5082601;28;20017;-73
2022/11/05 03:54:01;;;;;;;47.78;45.97;;;;;;;4.98;100.00;101320.25;5084804;28;20107;-74
2022/11/05 03:56:39;;;;;;;46.28;44.50;;;;;;;5.11;100.00;101349.03;5084261;28;20028;-74
2022/11/05 03:59:06;;;;;;;42.53;40.92;;;;;;;5.04;100.00;101339.94;5081561;28;20056;-74
2022/11/05 04:01:32;;;;;;;53.70;51.47;;;;;;;5.05;100.00;101352.06;5083143;28;20047;-74
2022/11/05 04:03:57;;;;;;;50.47;48.45;;;;;;;5.01;100.00;101342.75;5082905;28;20051;-74
2022/11/05 04:14:38;;;;;;;51.30;49.28;;;;;;;5.10;100.00;101344.78;5067696;28;20036;-74
2022/11/05 04:17:08;;;;;;;56.92;54.83;;;;;;;5.27;100.00;101360.19;5032894;28;20040;-74
2022/11/05 04:25:04;;;;;;;59.17;57.03;;;;;;;5.36;100.00;101372.66;5069498;28;20051;-74
2022/11/05 04:27:29;;;;;;;66.18;63.63;;;;;;;5.39;100.00;101376.00;5081725;28;20060;-74
2022/11/05 04:32:38;;;;;;;59.33;57.15;;;;;;;5.36;100.00;101377.88;5083326;28;20090;-74
2022/11/05 04:35:04;;;;;;;51.55;49.75;;;;;;;5.36;100.00;101377.03;5047999;28;20095;-74
2022/11/05 04:37:29;;;;;;;57.42;55.38;;;;;;;5.39;100.00;101373.38;5079550;28;20025;-74
2022/11/05 04:39:54;;;;;;;64.38;62.08;;;;;;;5.40;100.00;101377.66;5062480;28;20525;-74
2022/11/05 04:42:20;;;;;;;63.85;61.20;;;;;;;5.47;100.00;101384.19;5064249;28;20040;-74
2022/11/05 04:44:45;;;;;;;66.43;63.90;;;;;;;5.36;100.00;101350.88;5062944;28;20111;-74
2022/11/05 04:47:10;;;;;;;64.65;62.38;;;;;;;5.58;100.00;101373.81;5062363;28;20488;-74
2022/11/05 04:49:36;;;;;;;68.85;66.40;;;;;;;5.65;100.00;101387.31;5081234;28;20031;-74
2022/11/05 04:52:01;;;;;;;59.78;57.42;;;;;;;5.47;100.00;101355.38;5063197;28;20490;-74
2022/11/05 04:54:26;;;;;;;59.58;57.47;;;;;;;5.64;100.00;101385.63;5064275;28;20024;-74
2022/11/05 04:56:52;;;;;;;48.38;46.67;;;;;;;5.53;100.00;101381.13;5082842;28;20140;-74
2022/11/05 04:59:17;;;;;;;49.53;47.78;;;;;;;5.64;100.00;101402.19;5048284;28;20024;-74
2022/11/05 05:01:42;;;;;;;45.90;44.22;;;;;;;5.64;100.00;101391.72;5067130;28;20033;-74
2022/11/05 05:04:08;;;;;;;43.45;41.85;;;;;;;5.48;100.00;101357.03;5082929;28;20507;-74
2022/11/05 05:06:33;;;;;;;41.92;40.33;;;;;;;5.62;100.00;101377.03;5065737;28;20027;-74
2022/11/05 05:08:58;;;;;;;48.75;47.05;;;;;;;5.66;100.00;101374.13;5083183;28;20043;-74
2022/11/05 05:11:24;;;;;;;51.35;49.10;;;;;;;5.68;100.00;101387.97;5065321;28;20033;-74
2022/11/05 05:13:49;;;;;;;43.10;41.55;;;;;;;5.68;100.00;101387.97;5065412;28;20062;-74
2022/11/05 05:16:23;;;;;;;44.83;43.22;;;;;;;5.69;100.00;101384.38;5064085;28;20036;-74
2022/11/05 05:18:50;;;;;;;45.65;43.88;;;;;;;5.66;100.00;101387.22;5081865;28;20504;-74
2022/11/05 05:24:01;;;;;;;39.15;37.78;;;;;;;5.68;100.00;101374.88;5084437;28;20035;-74
2022/11/05 05:26:27;;;;;;;40.35;38.92;;;;;;;5.85;100.00;101393.81;5070710;28;20036;-74
2022/11/05 05:28:53;;;;;;;43.97;42.40;;;;;;;5.89;100.00;101387.41;5087250;28;20017;-74
2022/11/05 05:31:19;;;;;;;48.95;47.13;;;;;;;5.88;100.00;101383.09;5066445;28;20046;-74
2022/11/05 05:33:45;;;;;;;44.55;42.85;;;;;;;5.92;100.00;101384.56;5084119;28;20104;-73
2022/11/05 05:36:10;;;;;;;44.08;42.50;;;;;;;5.89;100.00;101392.66;5085231;28;20048;-73
2022/11/05 05:38:35;;;;;;;41.75;39.92;;;;;;;5.90;100.00;101396.94;5083732;28;20450;-73
2022/11/05 05:41:01;;;;;;;41.42;39.95;;;;;;;5.83;100.00;101395.69;5033621;28;20024;-73
2022/11/05 05:43:31;;;;;;;41.80;40.25;;;;;;;5.79;100.00;101405.53;5034421;28;20540;-74
2022/11/05 05:46:03;;;;;;;37.28;35.92;;;;;;;5.75;100.00;101404.91;5067080;28;20067;-74
2022/11/05 05:48:29;;;;;;;40.65;39.17;;;;;;;5.71;100.00;101403.44;5067446;28;20024;-74
2022/11/05 05:51:03;;;;;;;45.80;44.13;;;;;;;5.73;100.00;101401.56;5066729;28;20035;-74
2022/11/05 05:53:29;;;;;;;49.47;47.35;;;;;;;5.65;100.00;101384.69;5068726;28;20020;-74
2022/11/05 05:55:55;;;;;;;51.53;49.53;;;;;;;5.64;100.00;101391.72;5051079;28;20047;-74
2022/11/05 05:58:22;;;;;;;49.03;46.75;;;;;;;5.77;100.00;101405.66;5084308;28;20025;-74
2022/11/05 06:00:47;;;;;;;52.72;50.75;;;;;;;5.80;100.00;101401.16;5080399;28;20126;-74
2022/11/05 06:03:13;;;;;;;61.38;59.10;;;;;;;5.82;100.00;101409.75;5081951;28;20095;-74
2022/11/05 06:05:38;;;;;;;66.90;64.43;;;;;;;5.68;100.00;101393.19;5047265;28;20036;-73
2022/11/05 06:08:04;;;;;;;60.90;58.67;;;;;;;5.67;100.00;101399.34;5064452;28;20042;-74
2022/11/05 06:10:29;;;;;;;51.50;49.60;;;;;;;5.75;100.00;101410.16;5064922;28;20133;-74
2022/11/05 06:12:54;;;;;;;58.05;55.92;;;;;;;5.59;100.00;101388.56;5081215;28;20032;-74
2022/11/05 06:15:20;;;;;;;59.22;57.03;;;;;;;5.70;100.00;101417.47;5044068;28;20039;-74
2022/11/05 06:17:45;;;;;;;63.97;61.53;;;;;;;5.68;100.00;101411.53;5060215;28;21144;-74
2022/11/05 06:20:12;;;;;;;53.25;51.03;;;;;;;5.67;100.00;101406.38;5060782;28;20040;-74
2022/11/05 06:22:38;;;;;;;46.28;44.60;;;;;;;5.47;100.00;101390.25;5078752;28;20519;-74
2022/11/05 06:25:04;;;;;;;57.97;55.53;;;;;;;5.62;100.00;101411.06;5077772;28;20119;-74
2022/11/05 06:27:29;;;;;;;55.85;53.67;;;;;;;5.55;100.00;101419.38;5080091;28;20036;-75
2022/11/05 06:29:55;;;;;;;57.60;55.50;;;;;;;5.41;100.00;101400.28;5061471;28;20037;-74
2022/11/05 06:32:20;;;;;;;50.25;48.40;;;;;;;5.47;100.00;101418.22;5059326;28;20503;-74
2022/11/05 06:34:46;;;;;;;49.05;47.25;;;;;;;5.43;100.00;101419.34;5044703;28;20043;-74
2022/11/05 06:37:11;;;;;;;46.88;45.13;;;;;;;5.23;100.00;101395.34;5040730;28;20035;-74
2022/11/05 06:39:37;;;;;;;47.65;45.80;;;;;;;5.25;100.00;101411.78;5028969;28;20028;-73
2022/11/05 06:42:02;;;;;;;52.35;50.42;;;;;;;5.24;100.00;101423.19;5078798;28;20042;-74
2022/11/05 06:44:28;;;;;;;49.17;47.35;;;;;;;5.17;100.00;101427.16;5081171;28;20052;-74
2022/11/05 06:46:53;;;;;;;47.35;45.60;;;;;;;5.10;100.00;101425.88;5080266;28;20040;-73
2022/11/05 06:49:18;;;;;;;47.92;46.15;;;;;;;5.08;100.00;101425.13;5061121;28;20120;-73
2022/11/05 06:51:44;;;;;;;49.55;47.65;;;;;;;5.00;100.00;101428.25;5046315;28;20636;-74
2022/11/05 06:54:09;;;;;;;49.70;47.78;;;;;;;4.87;100.00;101425.56;5063139;28;20553;-73
2022/11/05 06:56:35;;;;;;;49.10;47.22;;;;;;;4.92;100.00;101440.97;5062371;28;20153;-73
2022/11/05 06:59:00;;;;;;;49.75;47.90;;;;;;;4.91;100.00;101434.91;5062505;28;20024;-74
2022/11/05 07:01:25;;;;;;;47.90;46.08;;;;;;;4.82;100.00;101425.03;5073885;28;20539;-74
2022/11/05 07:03:51;;;;;;;52.85;50.85;;;;;;;4.88;100.00;101442.97;5045291;28;20031;-74
2022/11/05 07:06:16;;;;;;;55.67;53.65;;;;;;;4.89;100.00;101451.63;5044917;28;20032;-73
2022/11/05 07:08:42;;;;;;;55.92;53.88;;;;;;;4.88;100.00;101442.97;5062502;28;20020;-73
2022/11/05 07:11:07;;;;;;;62.58;60.20;;;;;;;4.73;100.00;101426.47;5061082;28;20024;-73
2022/11/05 07:13:32;;;;;;;57.65;55.55;;;;;;;4.88;100.00;101449.97;5045583;28;20025;-74
2022/11/05 07:15:58;;;;;;;58.22;56.05;;;;;;;4.85;100.00;101452.78;5079299;28;20396;-73
2022/11/05 07:18:23;;;;;;;52.35;50.40;;;;;;;4.87;100.00;101449.13;5077607;28;20020;-73
2022/11/05 07:20:49;;;;;;;50.28;48.22;;;;;;;4.93;100.00;101438.25;5061013;28;20047;-73
2022/11/05 07:23:15;;;;;;;51.45;49.47;;;;;;;4.99;100.00;101446.63;5079728;28;20036;-73
2022/11/05 07:25:42;;;;;;;52.25;50.33;;;;;;;4.95;100.00;101436.38;5059608;28;20119;-74
2022/11/05 07:28:08;;;;;;;61.97;59.65;;;;;;;5.02;100.00;101430.75;5078782;28;20071;-73
2022/11/05 07:30:34;;;;;;;62.25;59.85;;;;;;;5.07;100.00;101445.22;5041416;28;20020;-74
2022/11/05 07:33:01;;;;;;;59.78;57.53;;;;;;;5.17;100.00;101429.75;5075494;28;20131;-74
2022/11/05 07:35:26;;;;;;;66.82;64.32;;;;;;;5.62;100.00;101445.97;5061221;28;20028;-74
2022/11/05 07:37:53;;;;;;;93.05;89.30;;;;;;;5.91;100.00;101440.53;5043222;28;20592;-73
2022/11/05 07:40:20;;;;;;;99.07;95.40;;;;;;;6.28;100.00;101436.22;5075371;28;20396;-74
2022/11/05 07:42:51;;;;;;;65.32;62.83;;;;;;;6.44;100.00;101458.75;5042167;28;20059;-74
2022/11/05 07:45:17;;;;;;;17.48;16.70;;;;;;;6.55;100.00;101451.81;5059045;28;20404;-74
2022/11/05 07:47:48;;;;;;;8.07;7.68;;;;;;;6.52;100.00;101451.19;5056397;28;20042;-74
2022/11/05 07:50:15;;;;;;;4.15;3.78;;;;;;;6.45;100.00;101448.16;5058906;28;20024;-74
2022/11/05 07:52:40;;;;;;;3.10;2.90;;;;;;;6.36;100.00;101440.94;5076033;28;20028;-74
2022/11/05 07:55:06;;;;;;;2.63;2.42;;;;;;;6.24;100.00;101452.28;5076473;28;20024;-74
2022/11/05 07:57:31;;;;;;;3.08;2.75;;;;;;;6.21;100.00;101452.50;5075942;28;20032;-73
2022/11/05 07:59:57;;;;;;;2.92;2.72;;;;;;;6.23;100.00;101454.06;5076945;28;20067;-74
2022/11/05 08:02:22;;;;;;;5.68;5.28;;;;;;;6.34;100.00;101438.44;5076786;28;20313;-74
2022/11/05 08:04:47;;;;;;;8.73;8.13;;;;;;;6.77;100.00;101460.75;5058101;28;20064;-74
2022/11/05 08:07:13;;;;;;;7.90;7.50;;;;;;;7.10;100.00;101465.38;5057421;28;20031;-74
2022/11/05 08:09:38;;;;;;;4.95;4.63;;;;;;;7.43;100.00;101463.81;5076702;28;20162;-74
2022/11/05 08:12:04;;;;;;;3.75;3.47;;;;;;;8.18;100.00;101463.34;5043846;28;20032;-74
2022/11/05 08:14:29;;;;;;;3.80;3.47;;;;;;;8.60;100.00;101466.22;5076446;28;20187;-74
2022/11/05 08:16:56;;;;;;;3.65;2.65;;;;;;;8.15;100.00;101439.94;5043810;28;20505;-74
2022/11/05 08:19:21;;;;;;;2.58;1.55;;;;;;;8.12;100.00;101465.59;5076856;28;20050;-74
2022/11/05 08:21:47;;;;;;;2.08;1.63;;;;;;;7.91;100.00;101462.84;5077795;28;20032;-74
2022/11/05 08:24:12;;;;;;;5.63;1.65;;;;;;;7.68;100.00;101439.16;5072701;28;20522;-74
2022/11/05 08:26:37;;;;;;;2.63;1.88;;;;;;;7.69;100.00;101469.75;5059225;28;20129;-74
2022/11/05 08:29:03;;;;;;;6.57;1.98;;;;;;;7.59;100.00;101458.25;5059924;28;20571;-74
2022/11/05 08:31:29;;;;;;;2.38;2.17;;;;;;;7.55;100.00;101468.13;5058997;28;20028;-73
2022/11/05 08:33:55;;;;;;;3.95;2.13;;;;;;;7.59;100.00;101468.75;5055597;28;20032;-73
2022/11/05 08:36:21;;;;;;;4.13;3.28;;;;;;;7.74;100.00;101454.47;5074783;28;20440;-74
2022/11/05 08:38:46;;;;;;;4.30;4.07;;;;;;;8.78;100.00;101465.72;5076248;28;20127;-74
2022/11/05 08:41:11;;;;;;;8.82;8.45;;;;;;;10.27;100.00;101469.94;5074914;28;20030;-74
2022/11/05 08:43:37;;;;;;;4.53;4.00;;;;;;;11.72;96.85;101467.66;5057434;28;20471;-74
2022/11/05 08:46:02;;;;;;;3.58;2.20;;;;;;;12.10;89.95;101460.59;5075385;28;20070;-74
2022/11/05 08:48:27;;;;;;;4.30;2.00;;;;;;;12.35;84.44;101452.00;5050137;28;20024;-74
2022/11/05 08:50:53;;;;;;;3.53;1.13;;;;;;;12.96;82.76;101471.72;5074965;28;20036;-74
2022/11/05 08:53:19;;;;;;;1.60;1.40;;;;;;;12.20;82.31;101440.25;5055111;28;20489;-74
2022/11/05 08:55:46;;;;;;;4.32;1.65;;;;;;;12.10;83.91;101460.59;5074722;28;20024;-74
2022/11/05 08:58:15;;;;;;;3.70;1.20;;;;;;;12.40;82.90;101466.63;5057748;28;20133;-74
2022/11/05 09:00:44;;;;;;;3.50;1.73;;;;;;;12.30;83.39;101461.34;5077694;28;20093;-74
2022/11/05 09:03:10;;;;;;;2.08;1.00;;;;;;;12.52;82.03;101460.13;5059342;28;20405;-74
2022/11/05 09:05:38;;;;;;;5.07;1.25;;;;;;;13.24;79.81;101454.91;5012487;28;20490;-74
2022/11/05 09:08:15;;;;;;;3.47;2.13;;;;;;;14.05;77.14;101453.84;5060818;28;20093;-74
2022/11/05 09:10:42;;;;;;;2.78;1.38;;;;;;;15.18;74.38;101468.50;5077757;28;20492;-75
2022/11/05 09:13:08;;;;;;;1.17;0.95;;;;;;;16.00;73.29;101454.31;5077232;28;20526;-74
2022/11/05 09:15:36;;;;;;;1.30;1.10;;;;;;;16.39;71.53;101466.81;5079458;28;20024;-74
2022/11/05 09:18:04;;;;;;;1.88;1.05;;;;;;;15.72;71.25;101461.84;5080375;28;20484;-75
2022/11/05 09:20:30;;;;;;;1.70;1.52;;;;;;;17.28;72.01;101446.78;5060864;28;20127;-75
2022/11/05 09:22:56;;;;;;;1.98;1.02;;;;;;;17.84;67.10;101461.69;5059541;28;20035;-75
2022/11/05 09:25:22;;;;;;;1.95;1.05;;;;;;;15.66;67.03;101441.19;5079007;28;20024;-75
2022/11/05 09:27:48;;;;;;;4.65;1.55;;;;;;;14.73;74.27;101461.78;5061235;28;20039;-75
2022/11/05 09:30:14;;;;;;;1.92;1.10;;;;;;;15.60;71.65;101451.53;5078727;28;20024;-75
2022/11/05 09:32:40;;;;;;;1.92;1.02;;;;;;;16.62;69.96;101450.91;5044623;28;20066;-75
2022/11/05 09:35:06;;;;;;;2.22;1.20;;;;;;;16.00;68.96;101431.19;5077185;28;20024;-75
2022/11/05 09:37:32;;;;;;;2.72;1.10;;;;;;;16.10;68.38;101446.13;5062277;28;20510;-76
2022/11/05 09:39:57;;;;;;;1.98;1.00;;;;;;;17.17;70.21;101460.56;5059220;28;20029;-75
2022/11/05 09:42:36;;;;;;;2.72;0.93;;;;;;;17.51;65.11;101450.44;5075310;28;20056;-75
2022/11/05 09:45:19;;;;;;;3.50;1.00;;;;;;;17.42;64.04;101447.88;5062078;28;20059;-75
2022/11/05 09:47:54;;;;;;;1.52;0.85;;;;;;;17.19;67.62;101453.22;5060914;28;20024;-74
2022/11/05 09:50:43;;;;;;;2.30;1.10;;;;;;;17.22;64.26;101450.22;5049063;28;20511;-74
2022/11/05 09:53:14;;;;;;;1.75;1.23;;;;;;;16.88;65.39;101469.28;5073885;28;20372;-75
2022/11/05 09:55:50;;;;;;;4.90;1.45;;;;;;;16.80;66.64;101469.31;5077358;28;20256;-74
2022/11/05 09:58:15;;;;;;;1.50;0.98;;;;;;;16.40;66.10;101469.31;5059577;28;20023;-75
2022/11/05 10:00:42;;;;;;;3.83;1.30;;;;;;;15.42;70.77;101472.19;5057498;28;20032;-75
2022/11/05 10:03:12;;;;;;;1.88;1.20;;;;;;;15.50;71.23;101463.34;5040368;28;20024;-74
2022/11/05 10:05:39;;;;;;;;;;;;;;;16.95;69.32;101474.72;5058487;28;20060;-74
2022/11/05 10:08:12;;;;;;;3.97;1.23;;;;;;;17.89;64.40;101472.63;5075680;28;19916;-74
2022/11/05 10:10:44;;;;;;;1.70;0.80;;;;;;;15.63;69.42;101472.50;5075746;28;20048;-74
2022/11/05 10:13:33;;;;;;;4.47;1.27;;;;;;;13.92;75.29;101481.66;5074985;28;20032;-74
2022/11/05 10:16:01;;;;;;;1.48;1.10;;;;;;;14.25;76.31;101479.16;5075171;28;20554;-74
2022/11/05 10:18:33;;;;;;;3.40;1.27;;;;;;;14.75;74.03;101489.00;5074278;28;20721;-74
2022/11/05 10:20:59;;;;;;;1.27;1.00;;;;;;;15.21;74.18;101489.44;5075196;28;20574;-75
2022/11/05 10:23:26;;;;;;;1.98;1.55;;;;;;;16.02;69.70;101487.75;5058953;28;20128;-74
2022/11/05 10:25:54;;;;;;;2.22;1.02;;;;;;;16.23;69.48;101475.72;5070527;28;20036;-74
2022/11/05 10:28:23;;;;;;;3.17;1.30;;;;;;;17.18;67.22;101493.38;5052544;28;20039;-75
2022/11/05 10:30:52;;;;;;;3.70;1.38;;;;;;;17.44;66.51;101501.03;5074479;28;20202;-75
2022/11/05 10:33:32;;;;;;;2.25;1.10;;;;;;;17.80;64.97;101497.72;5075295;28;20013;-74
2022/11/05 10:36:03;;;;;;;3.65;1.20;;;;;;;16.00;68.11;101499.56;5073718;28;20031;-75
2022/11/05 10:38:29;;;;;;;2.15;1.20;;;;;;;13.87;75.39;101483.94;5056771;28;20040;-74
2022/11/05 10:41:10;;;;;;;2.35;1.38;;;;;;;13.58;79.14;101490.34;5074838;28;20066;-74
2022/11/05 10:43:39;;;;;;;;;;;;;;;12.90;81.32;101496.16;5073138;28;20107;-74
2022/11/05 10:46:27;;;;;;;2.35;1.20;;;;;;;12.56;84.04;101490.63;5074215;28;20357;-74
2022/11/05 10:48:55;;;;;;;2.08;1.10;;;;;;;12.35;85.72;101489.06;5059132;28;20039;-74
2022/11/05 10:51:21;;;;;;;4.82;1.63;;;;;;;12.68;87.04;101480.69;5059146;28;20024;-74
2022/11/05 10:53:52;;;;;;;5.88;1.65;;;;;;;13.24;85.51;101489.34;5041759;28;20408;-74
2022/11/05 10:56:31;;;;;;;1.50;1.10;;;;;;;13.72;84.44;101483.66;5075086;28;20031;-74
2022/11/05 10:58:59;;;;;;;2.75;1.50;;;;;;;14.44;82.55;101483.41;5073720;28;20034;-74
2022/11/05 11:01:25;;;;;;;3.03;2.00;;;;;;;14.35;79.46;101487.84;5059181;28;20028;-74
2022/11/05 11:04:16;;;;;;;2.90;1.13;;;;;;;14.22;79.98;101483.94;5056118;28;20059;-74
2022/11/05 11:06:54;;;;;;;1.05;0.93;;;;;;;14.63;78.59;101465.56;5075543;28;20484;-74
2022/11/05 11:09:29;;;;;;;1.65;0.82;;;;;;;14.64;77.99;101451.31;5057383;28;20102;-74
2022/11/05 11:12:26;;;;;;;3.47;1.00;;;;;;;14.28;78.81;101478.00;5071760;28;20051;-74
2022/11/05 11:15:04;;;;;;;3.67;1.80;;;;;;;13.74;78.76;101467.56;5071928;28;21336;-74
2022/11/05 11:17:31;;;;;;;2.00;1.13;;;;;;;12.84;81.49;101464.13;5073553;28;20047;-74
2022/11/05 11:20:15;;;;;;;2.10;1.10;;;;;;;13.26;84.60;101482.09;5055757;28;20056;-74
2022/11/05 11:22:40;;;;;;;1.85;1.00;;;;;;;13.21;83.86;101468.47;5072066;28;20025;-74
2022/11/05 11:25:27;;;;;;;2.40;1.70;;;;;;;13.32;82.84;101486.81;5056144;28;20086;-74
2022/11/05 11:27:53;;;;;;;3.63;1.05;;;;;;;13.43;82.96;101472.50;5073124;28;20093;-74
2022/11/05 11:30:20;;;;;;;3.92;1.27;;;;;;;13.63;81.37;101486.41;5055304;28;20041;-74
2022/11/05 11:32:48;;;;;;;1.58;1.00;;;;;;;13.66;82.71;101483.47;5072438;28;20064;-74
2022/11/05 11:35:22;;;;;;;12.05;1.77;;;;;;;13.16;81.67;101493.59;5072611;28;20115;-74
2022/11/05 11:37:50;;;;;;;3.38;1.05;;;;;;;12.94;83.15;101488.75;5073975;28;20032;-74
2022/11/05 11:40:19;;;;;;;2.03;1.40;;;;;;;12.99;82.98;101475.88;5054804;28;20527;-74
2022/11/05 11:42:51;;;;;;;1.60;1.00;;;;;;;13.79;81.81;101481.22;5070815;28;20025;-74
2022/11/05 11:45:26;;;;;;;1.38;1.00;;;;;;;14.46;79.00;101486.75;5055796;28;20032;-74
2022/11/05 11:47:54;;;;;;;1.98;0.85;;;;;;;14.49;78.31;101465.16;5071036;28;20052;-75
2022/11/05 11:50:37;;;;;;;3.40;1.20;;;;;;;15.32;77.29;101482.13;5072412;28;20027;-74
2022/11/05 11:53:33;;;;;;;2.65;1.10;;;;;;;14.82;74.28;101478.56;5053610;28;20032;-74
2022/11/05 11:56:04;;;;;;;5.65;1.70;;;;;;;14.03;77.50;101472.59;5073950;28;20100;-74
2022/11/05 11:58:48;;;;;;;2.40;0.90;;;;;;;13.60;80.26;101461.03;5073027;28;20377;-74
2022/11/05 12:01:41;;;;;;;7.38;1.63;;;;;;;12.97;82.84;101469.91;5072766;28;20029;-74
2022/11/05 12:04:21;;;;;;;1.48;0.77;;;;;;;12.65;83.96;101459.78;5056405;28;20077;-74
2022/11/05 12:07:16;;;;;;;1.85;1.00;;;;;;;12.58;84.39;101466.66;5056652;28;20076;-74
2022/11/05 12:10:19;;;;;;;2.13;0.95;;;;;;;12.20;85.23;101472.00;5012233;28;20041;-74
2022/11/05 12:12:47;;;;;;;2.00;1.27;;;;;;;12.45;87.59;101474.94;5012756;28;20060;-74